Time;durP1;ratioP1;P1;durP2;ratioP2;P2;SDS_P1;SDS_P2;PMS_P1;PMS_P2;Temp;Humidity;BMP_temperature;BMP_pressure;BME280_temperature;BME280_humidity;BME280_pressure;Samples;Min_cycle;Max_cycle;Signal;HPM_P1;HPM_P2
2022/01/05 00:01:58;;;;;;;25.65;2.80;;;;;;;4.51;70.36;100049.16;5016005;28;20046;-42
2022/01/05 00:04:23;;;;;;;18.88;2.38;;;;;;;4.48;69.12;100043.34;5034194;28;20033;-43
2022/01/05 00:06:49;;;;;;;18.85;2.30;;;;;;;4.46;68.34;100051.47;5022517;28;20034;-43
2022/01/05 00:09:15;;;;;;;22.02;2.65;;;;;;;4.38;67.75;100052.28;5032672;28;20087;-41
2022/01/05 00:11:41;;;;;;;19.95;2.40;;;;;;;4.34;67.97;100058.06;5035414;28;20030;-41
2022/01/05 00:14:06;;;;;;;17.08;2.40;;;;;;;4.31;67.69;100053.06;5035465;28;20039;-42
2022/01/05 00:16:32;;;;;;;16.83;2.97;;;;;;;4.17;66.44;100050.03;5035713;28;20026;-41
2022/01/05 00:18:58;;;;;;;15.15;2.22;;;;;;;4.12;67.31;100052.34;5018902;28;20074;-41
2022/01/05 00:21:23;;;;;;;21.85;2.63;;;;;;;4.08;67.47;100048.34;5016210;28;20096;-43
2022/01/05 00:23:48;;;;;;;19.95;2.58;;;;;;;4.06;67.22;100054.81;5016897;28;20133;-42
2022/01/05 00:26:14;;;;;;;12.75;2.20;;;;;;;4.04;68.05;100054.97;5015562;28;20430;-42
2022/01/05 00:28:39;;;;;;;9.40;2.00;;;;;;;4.03;68.40;100055.09;5014254;28;20537;-42
2022/01/05 00:31:04;;;;;;;22.67;2.13;;;;;;;4.03;68.04;100050.66;5034877;28;20346;-43
2022/01/05 00:33:30;;;;;;;14.13;2.88;;;;;;;4.02;67.95;100042.81;5024752;28;20101;-42
2022/01/05 00:35:55;;;;;;;15.82;2.10;;;;;;;4.01;67.93;100052.63;4997767;28;20160;-42
2022/01/05 00:38:21;;;;;;;21.33;2.63;;;;;;;3.98;67.33;100052.94;5015317;28;20104;-42
2022/01/05 00:40:46;;;;;;;16.65;2.63;;;;;;;3.95;67.03;100053.28;5017224;28;20026;-43
2022/01/05 00:43:11;;;;;;;14.15;2.08;;;;;;;3.92;66.20;100056.22;5034904;28;20076;-42
2022/01/05 00:45:37;;;;;;;14.73;2.03;;;;;;;3.91;64.06;100054.56;5034338;28;20033;-42
2022/01/05 00:48:02;;;;;;;12.85;1.98;;;;;;;3.85;63.88;100052.53;5025651;28;20026;-42
2022/01/05 00:50:28;;;;;;;20.75;2.35;;;;;;;3.85;64.61;100057.88;5030872;28;20030;-42
2022/01/05 00:52:59;;;;;;;14.20;1.98;;;;;;;3.83;65.47;100046.53;5033523;28;20025;-42
2022/01/05 00:55:25;;;;;;;11.35;2.40;;;;;;;3.81;65.57;100056.50;5034955;28;20508;-43
2022/01/05 00:57:52;;;;;;;18.80;2.33;;;;;;;3.78;66.37;100052.31;5029581;28;20026;-42
2022/01/05 01:00:17;;;;;;;26.33;2.40;;;;;;;3.77;66.45;100055.16;5035041;28;20172;-42
2022/01/05 01:02:42;;;;;;;16.30;2.35;;;;;;;3.76;66.33;100048.16;5030599;28;20180;-42
2022/01/05 01:05:08;;;;;;;17.23;2.38;;;;;;;3.82;64.64;100052.84;5014783;28;20080;-42
2022/01/05 01:07:33;;;;;;;12.10;1.88;;;;;;;3.79;66.39;100058.47;5023150;28;20114;-43
2022/01/05 01:09:58;;;;;;;18.52;2.75;;;;;;;3.79;66.72;100061.13;5033042;28;20027;-42
2022/01/05 01:12:24;;;;;;;18.90;2.13;;;;;;;3.78;66.05;100062.13;5029501;28;20026;-42
2022/01/05 01:14:49;;;;;;;15.63;2.20;;;;;;;3.76;66.68;100062.28;5014556;28;20176;-42
2022/01/05 01:17:14;;;;;;;23.70;2.30;;;;;;;3.76;66.79;100064.13;5015620;28;20037;-42
2022/01/05 01:19:40;;;;;;;17.67;2.75;;;;;;;3.74;66.54;100067.78;5014556;28;20022;-42
2022/01/05 01:22:05;;;;;;;23.58;2.92;;;;;;;3.74;68.15;100070.44;5014964;28;20041;-42
2022/01/05 01:24:30;;;;;;;22.15;2.88;;;;;;;3.76;67.63;100072.09;5014514;28;20045;-42
2022/01/05 01:26:56;;;;;;;17.73;2.75;;;;;;;3.73;67.33;100071.41;5014437;28;20022;-42
2022/01/05 01:29:21;;;;;;;19.50;3.47;;;;;;;3.76;68.06;100064.13;5019328;28;20026;-43
2022/01/05 01:31:47;;;;;;;22.33;3.03;;;;;;;3.79;67.73;100069.13;5034319;28;20096;-43
2022/01/05 01:34:13;;;;;;;22.75;2.63;;;;;;;3.78;68.09;100067.47;5019316;28;20034;-42
2022/01/05 01:36:38;;;;;;;21.73;2.83;;;;;;;3.77;68.02;100071.97;5014426;28;20030;-43
2022/01/05 01:39:05;;;;;;;20.52;2.85;;;;;;;3.78;67.42;100073.63;5014147;28;20104;-42
2022/01/05 01:41:30;;;;;;;17.20;2.47;;;;;;;3.81;68.54;100080.44;5021897;28;20035;-44
2022/01/05 01:43:55;;;;;;;19.25;2.75;;;;;;;3.82;69.63;100090.09;5032615;28;20397;-42
2022/01/05 01:46:21;;;;;;;20.52;2.88;;;;;;;3.81;69.80;100083.13;5033896;28;20025;-42
2022/01/05 01:48:46;;;;;;;14.90;2.90;;;;;;;3.87;69.56;100085.13;5031843;28;20110;-43
2022/01/05 01:51:14;;;;;;;21.23;2.40;;;;;;;3.87;69.72;100094.00;5020347;28;20037;-44
2022/01/05 01:53:39;;;;;;;24.17;3.03;;;;;;;3.92;69.93;100090.84;5012751;28;20033;-43
2022/01/05 01:56:05;;;;;;;18.23;2.85;;;;;;;4.01;69.39;100083.75;5012706;28;20026;-43
2022/01/05 01:58:33;;;;;;;29.88;2.78;;;;;;;4.03;71.04;100085.25;5012816;28;20113;-42
2022/01/05 02:00:58;;;;;;;16.58;2.65;;;;;;;4.04;70.19;100078.94;5014322;28;20101;-42
2022/01/05 02:03:23;;;;;;;21.10;2.90;;;;;;;4.04;69.17;100080.75;5013681;28;20437;-43
2022/01/05 02:05:49;;;;;;;17.40;2.60;;;;;;;4.07;70.54;100083.09;5013842;28;20119;-42
2022/01/05 02:08:14;;;;;;;18.30;2.45;;;;;;;4.08;70.89;100085.63;5013753;28;20149;-43
2022/01/05 02:10:40;;;;;;;23.58;3.00;;;;;;;4.07;70.79;100075.13;5028575;28;20469;-43
2022/01/05 02:13:06;;;;;;;21.90;2.78;;;;;;;4.08;72.10;100080.28;5022942;28;20450;-43
2022/01/05 02:15:31;;;;;;;23.83;2.88;;;;;;;4.09;71.35;100087.28;5012474;28;20026;-43
2022/01/05 02:18:10;;;;;;;20.67;3.08;;;;;;;4.12;71.37;100086.97;5013295;28;20196;-43
2022/01/05 02:20:36;;;;;;;26.83;3.00;;;;;;;4.10;71.29;100088.94;5026296;28;20044;-41
2022/01/05 02:23:01;;;;;;;28.55;2.63;;;;;;;4.13;71.05;100080.66;5031300;28;20021;-42
2022/01/05 02:25:27;;;;;;;27.77;3.33;;;;;;;4.16;70.63;100080.34;5033176;28;20014;-42
2022/01/05 02:27:55;;;;;;;21.92;2.33;;;;;;;4.18;69.64;100075.66;5031897;28;20036;-43
2022/01/05 02:30:25;;;;;;;16.45;2.83;;;;;;;4.13;70.46;100085.97;5022152;28;20482;-43
2022/01/05 02:32:52;;;;;;;21.88;3.28;;;;;;;4.12;70.72;100086.13;5012001;28;20030;-41
2022/01/05 02:35:17;;;;;;;26.80;3.13;;;;;;;4.13;71.83;100083.31;5013160;28;20034;-42
2022/01/05 02:37:45;;;;;;;19.25;2.53;;;;;;;4.12;71.59;100086.97;5020771;28;20096;-42
2022/01/05 02:40:12;;;;;;;21.58;3.05;;;;;;;4.13;71.05;100088.66;5030824;28;20027;-43
2022/01/05 02:42:37;;;;;;;28.17;3.15;;;;;;;4.08;72.24;100082.97;5031737;28;20025;-43
2022/01/05 02:45:03;;;;;;;24.05;2.88;;;;;;;4.06;71.21;100089.44;5032522;28;20036;-43
2022/01/05 02:47:28;;;;;;;27.05;3.28;;;;;;;4.02;71.60;100085.41;5031089;28;20058;-42
2022/01/05 02:49:58;;;;;;;23.40;3.08;;;;;;;4.04;71.69;100081.59;5027686;28;20337;-42
2022/01/05 02:52:23;;;;;;;15.63;2.80;;;;;;;4.07;71.68;100093.75;5030956;28;20029;-43
2022/01/05 02:54:48;;;;;;;21.77;2.75;;;;;;;4.02;71.73;100088.91;5030894;28;20040;-43
2022/01/05 02:57:14;;;;;;;21.13;2.97;;;;;;;4.05;71.81;100098.41;5032662;28;20079;-43
2022/01/05 02:59:39;;;;;;;21.45;2.83;;;;;;;4.07;71.75;100102.56;5032672;28;20032;-43
2022/01/05 03:02:04;;;;;;;17.15;2.72;;;;;;;4.07;72.53;100112.41;5019253;28;20050;-43
2022/01/05 03:04:30;;;;;;;18.83;2.83;;;;;;;4.05;72.46;100115.19;5012173;28;20033;-42
2022/01/05 03:06:55;;;;;;;19.38;2.83;;;;;;;4.07;72.99;100113.22;5018628;28;20517;-42
2022/01/05 03:09:20;;;;;;;31.70;2.88;;;;;;;4.06;73.00;100106.25;5024887;28;20029;-43
2022/01/05 03:11:46;;;;;;;26.75;3.78;;;;;;;4.06;73.58;100102.75;5015330;28;20026;-43
2022/01/05 03:14:11;;;;;;;25.48;3.80;;;;;;;4.07;74.34;100110.56;5034877;28;20514;-42
2022/01/05 03:16:36;;;;;;;25.90;3.47;;;;;;;4.10;74.36;100110.25;5018315;28;20026;-42
2022/01/05 03:19:02;;;;;;;23.58;3.80;;;;;;;4.12;73.88;100120.75;5012409;28;20429;-42
2022/01/05 03:21:28;;;;;;;22.13;3.33;;;;;;;4.12;74.35;100126.06;5012737;28;20598;-41
2022/01/05 03:23:53;;;;;;;30.63;3.38;;;;;;;4.12;74.30;100128.72;5012365;28;20030;-42
2022/01/05 03:26:18;;;;;;;29.95;2.83;;;;;;;4.17;74.45;100121.94;5012764;28;20026;-42
2022/01/05 03:28:44;;;;;;;25.92;2.70;;;;;;;4.18;73.56;100126.25;5027736;28;20397;-42
2022/01/05 03:31:09;;;;;;;31.23;4.10;;;;;;;4.22;73.69;100129.47;5032460;28;20492;-42
2022/01/05 03:33:34;;;;;;;23.80;3.35;;;;;;;4.21;72.25;100132.28;5032541;28;20509;-42
2022/01/05 03:36:00;;;;;;;27.63;3.65;;;;;;;4.22;72.78;100133.97;5032585;28;20537;-42
2022/01/05 03:38:28;;;;;;;27.65;3.20;;;;;;;4.24;72.79;100138.13;5018426;28;20083;-42
2022/01/05 03:40:53;;;;;;;34.60;3.15;;;;;;;4.29;72.28;100133.16;5012577;28;20057;-42
2022/01/05 03:43:19;;;;;;;21.02;2.35;;;;;;;4.28;71.73;100128.81;5012287;28;20458;-43
2022/01/05 03:45:44;;;;;;;33.60;3.47;;;;;;;4.31;71.64;100138.31;5012272;28;20026;-42
2022/01/05 03:48:11;;;;;;;21.88;2.67;;;;;;;4.34;71.21;100138.00;5021307;28;20469;-43
2022/01/05 03:50:37;;;;;;;19.05;2.72;;;;;;;4.42;71.75;100145.19;5013358;28;20579;-42
2022/01/05 03:53:04;;;;;;;23.35;3.15;;;;;;;4.38;71.94;100134.03;5011022;28;20032;-42
2022/01/05 03:55:30;;;;;;;20.00;3.10;;;;;;;4.41;71.91;100144.38;5012197;28;20458;-42
2022/01/05 03:57:56;;;;;;;17.85;2.20;;;;;;;4.44;72.11;100137.88;5011084;28;20486;-42
2022/01/05 04:00:21;;;;;;;25.65;2.60;;;;;;;4.50;71.66;100148.75;5012214;28;20026;-42
2022/01/05 04:02:47;;;;;;;27.08;3.40;;;;;;;4.49;71.84;100154.22;5010890;28;20125;-43
2022/01/05 04:05:12;;;;;;;21.65;3.00;;;;;;;4.48;72.87;100150.75;5010857;28;20026;-42
2022/01/05 04:07:37;;;;;;;25.77;3.28;;;;;;;4.56;71.74;100147.28;5010881;28;20167;-42
2022/01/05 04:10:03;;;;;;;25.83;3.42;;;;;;;4.50;72.82;100153.22;5014619;28;20831;-43
2022/01/05 04:12:29;;;;;;;25.10;2.88;;;;;;;4.51;70.92;100150.41;5025206;28;20034;-42
2022/01/05 04:14:54;;;;;;;23.08;3.38;;;;;;;4.52;71.98;100157.41;5012150;28;20037;-42
2022/01/05 04:17:21;;;;;;;25.60;3.20;;;;;;;4.48;72.60;100158.72;5014402;28;20029;-42
2022/01/05 04:19:46;;;;;;;32.65;4.63;;;;;;;4.48;72.46;100156.06;5031852;28;20033;-42
2022/01/05 04:22:11;;;;;;;20.10;2.53;;;;;;;4.44;71.80;100149.38;5020872;28;20030;-43
2022/01/05 04:24:37;;;;;;;29.98;3.35;;;;;;;4.43;72.58;100149.56;5015556;28;20091;-42
2022/01/05 04:27:02;;;;;;;21.23;2.75;;;;;;;4.41;71.56;100155.03;5015485;28;20022;-42
2022/01/05 04:29:28;;;;;;;19.75;2.83;;;;;;;4.43;72.44;100155.72;5034968;28;20033;-42
2022/01/05 04:31:53;;;;;;;27.70;3.08;;;;;;;4.46;72.73;100157.22;5027491;28;20022;-42
2022/01/05 04:34:19;;;;;;;29.30;3.70;;;;;;;4.49;73.17;100156.91;5014121;28;20083;-42
2022/01/05 04:36:44;;;;;;;23.58;3.10;;;;;;;4.49;73.10;100157.72;5015325;28;20663;-42
2022/01/05 04:39:09;;;;;;;29.58;3.63;;;;;;;4.47;73.42;100153.56;5014108;28;20026;-43
2022/01/05 04:41:35;;;;;;;23.38;3.03;;;;;;;4.52;72.92;100157.41;5013930;28;20034;-42
2022/01/05 04:44:00;;;;;;;25.50;3.60;;;;;;;4.46;73.49;100163.38;5013295;28;20053;-42
2022/01/05 04:46:25;;;;;;;25.25;3.40;;;;;;;4.49;73.47;100162.22;5033612;28;20381;-42
2022/01/05 04:48:50;;;;;;;31.45;3.30;;;;;;;4.51;72.63;100171.72;5033135;28;20112;-42
2022/01/05 04:51:16;;;;;;;19.60;2.35;;;;;;;4.54;72.48;100167.91;5034507;28;20116;-42
2022/01/05 04:53:41;;;;;;;27.00;2.97;;;;;;;4.49;71.90;100163.06;5033135;28;20029;-42
2022/01/05 04:56:06;;;;;;;26.73;2.97;;;;;;;4.41;72.12;100160.34;5034891;28;20371;-42
2022/01/05 04:58:32;;;;;;;26.88;3.17;;;;;;;4.38;71.72;100166.00;5022914;28;20034;-42
2022/01/05 05:00:57;;;;;;;33.50;3.85;;;;;;;4.37;71.70;100164.31;5015744;28;20042;-42
2022/01/05 05:03:22;;;;;;;21.38;2.22;;;;;;;4.26;71.98;100169.91;5014840;28;20128;-42
2022/01/05 05:05:48;;;;;;;20.08;2.92;;;;;;;4.25;72.05;100170.94;5014939;28;20109;-42
2022/01/05 05:08:13;;;;;;;19.33;2.70;;;;;;;4.20;72.13;100184.72;5014885;28;20048;-43
2022/01/05 05:10:38;;;;;;;20.80;2.85;;;;;;;4.23;72.46;100183.56;5013378;28;20022;-42
2022/01/05 05:13:11;;;;;;;20.00;2.20;;;;;;;4.25;72.66;100186.91;5014893;28;20033;-42
2022/01/05 05:15:38;;;;;;;20.60;2.75;;;;;;;4.26;72.71;100193.91;5014659;28;20109;-42
2022/01/05 05:18:04;;;;;;;21.95;3.92;;;;;;;4.29;72.96;100194.44;5015503;28;20022;-42
2022/01/05 05:20:29;;;;;;;15.10;2.90;;;;;;;4.38;72.82;100196.13;5017102;28;20084;-42
2022/01/05 05:22:54;;;;;;;18.05;3.08;;;;;;;4.44;72.53;100200.00;5033986;28;20040;-43
2022/01/05 05:25:20;;;;;;;19.98;3.30;;;;;;;4.48;72.29;100180.06;5024344;28;20025;-42
2022/01/05 05:27:45;;;;;;;24.83;2.58;;;;;;;4.48;72.74;100180.06;5018637;28;20145;-42
2022/01/05 05:30:11;;;;;;;27.35;3.65;;;;;;;4.53;72.88;100185.75;5032713;28;20037;-42
2022/01/05 05:32:36;;;;;;;16.52;3.03;;;;;;;4.48;73.36;100193.38;5031409;28;20036;-42
2022/01/05 05:35:02;;;;;;;33.05;3.85;;;;;;;4.50;73.26;100190.53;5033939;28;20040;-42
2022/01/05 05:37:27;;;;;;;33.28;3.38;;;;;;;4.48;73.38;100188.03;5023332;28;20033;-43
2022/01/05 05:39:52;;;;;;;22.42;2.60;;;;;;;4.45;73.82;100183.03;5013935;28;20030;-42
2022/01/05 05:42:18;;;;;;;30.90;3.10;;;;;;;4.48;74.18;100187.22;5024905;28;20108;-41
2022/01/05 05:44:43;;;;;;;14.75;2.15;;;;;;;4.46;73.70;100190.03;5025788;28;20104;-41
2022/01/05 05:47:09;;;;;;;21.67;3.17;;;;;;;4.47;74.39;100191.69;5020092;28;20034;-41
2022/01/05 05:49:34;;;;;;;18.27;3.05;;;;;;;4.49;74.51;100187.03;5031408;28;20053;-41
2022/01/05 05:52:00;;;;;;;19.75;3.35;;;;;;;4.51;74.42;100190.38;5016559;28;20077;-42
2022/01/05 05:54:25;;;;;;;26.90;3.15;;;;;;;4.53;75.16;100191.06;5004902;28;20049;-41
2022/01/05 05:56:50;;;;;;;28.08;3.22;;;;;;;4.55;75.17;100199.72;4997958;28;20582;-41
2022/01/05 05:59:16;;;;;;;35.53;3.88;;;;;;;4.59;75.04;100200.25;5011200;28;20037;-41
2022/01/05 06:01:41;;;;;;;22.20;3.70;;;;;;;4.61;74.88;100199.09;5016621;28;20046;-42
2022/01/05 06:04:06;;;;;;;28.38;2.65;;;;;;;4.68;74.86;100198.47;5009040;28;20021;-43
2022/01/05 06:06:32;;;;;;;31.45;3.42;;;;;;;4.71;75.57;100211.47;5010248;28;20041;-42
2022/01/05 06:08:57;;;;;;;33.67;3.92;;;;;;;4.74;76.18;100205.81;5010545;28;20026;-43
2022/01/05 06:11:22;;;;;;;25.77;3.55;;;;;;;4.82;75.94;100211.19;5019732;28;20057;-42
2022/01/05 06:13:49;;;;;;;25.60;3.70;;;;;;;4.83;75.93;100203.03;5020542;28;20033;-43
2022/01/05 06:16:15;;;;;;;27.88;2.60;;;;;;;4.83;75.68;100223.53;5011201;28;20022;-43
2022/01/05 06:18:40;;;;;;;69.60;4.90;;;;;;;4.86;74.98;100222.38;5019800;28;20034;-42
2022/01/05 06:21:06;;;;;;;24.15;3.03;;;;;;;4.85;75.42;100213.53;5010621;28;20029;-42
2022/01/05 06:23:31;;;;;;;29.60;5.45;;;;;;;4.88;75.27;100225.72;5009926;28;20030;-42
2022/01/05 06:25:56;;;;;;;23.55;3.28;;;;;;;4.89;75.40;100225.53;5010285;28;20057;-42
2022/01/05 06:28:22;;;;;;;38.63;3.78;;;;;;;4.94;75.52;100225.06;5025398;28;20478;-42
2022/01/05 06:30:47;;;;;;;31.85;3.08;;;;;;;4.89;75.85;100235.38;5009744;28;20033;-42
2022/01/05 06:33:12;;;;;;;28.52;3.63;;;;;;;4.85;75.27;100232.19;5009016;28;20167;-42
2022/01/05 06:35:38;;;;;;;23.52;3.13;;;;;;;4.83;75.53;100239.53;5008098;28;20056;-42
2022/01/05 06:38:03;;;;;;;30.45;3.17;;;;;;;4.84;75.41;100238.50;5010141;28;20185;-43
2022/01/05 06:40:29;;;;;;;26.23;3.67;;;;;;;4.84;75.58;100251.84;5008573;28;20049;-42
2022/01/05 06:42:54;;;;;;;27.15;3.42;;;;;;;4.87;76.02;100254.22;5010451;28;20518;-42
2022/01/05 06:45:20;;;;;;;29.60;3.15;;;;;;;4.91;76.14;100252.88;5025913;28;20037;-42
2022/01/05 06:47:45;;;;;;;31.20;3.40;;;;;;;4.90;75.45;100245.88;5013720;28;20037;-43
2022/01/05 06:50:11;;;;;;;27.92;3.67;;;;;;;4.89;75.88;100244.19;5015019;28;20041;-42
2022/01/05 06:52:38;;;;;;;31.40;3.58;;;;;;;4.89;75.84;100260.19;5024621;28;20040;-42
2022/01/05 06:55:04;;;;;;;22.23;2.53;;;;;;;4.88;76.14;100253.22;5016525;28;20087;-42
2022/01/05 06:57:29;;;;;;;26.80;3.00;;;;;;;4.89;75.87;100254.88;5016372;28;20049;-41
2022/01/05 06:59:55;;;;;;;31.17;2.78;;;;;;;4.88;76.54;100258.53;5018689;28;20563;-42
2022/01/05 07:02:20;;;;;;;26.10;3.40;;;;;;;4.87;76.75;100267.56;5014367;28;20604;-42
2022/01/05 07:04:47;;;;;;;25.70;4.03;;;;;;;4.86;77.42;100268.53;5017582;28;20132;-42
2022/01/05 07:07:12;;;;;;;35.97;3.95;;;;;;;4.92;77.67;100259.03;5016577;28;20536;-42
2022/01/05 07:09:37;;;;;;;34.35;4.10;;;;;;;4.92;77.57;100273.22;5017085;28;20037;-42
2022/01/05 07:12:03;;;;;;;25.70;4.00;;;;;;;4.89;77.50;100278.88;5016152;28;20030;-42
2022/01/05 07:14:28;;;;;;;29.67;3.53;;;;;;;4.91;77.83;100284.88;5019104;28;20112;-42
2022/01/05 07:16:54;;;;;;;30.58;4.07;;;;;;;4.95;78.03;100278.25;5015848;28;20038;-42
2022/01/05 07:19:20;;;;;;;39.40;4.22;;;;;;;4.98;77.55;100274.44;5019733;28;20025;-41
2022/01/05 07:21:47;;;;;;;33.90;3.50;;;;;;;5.04;77.29;100279.94;5023394;28;20083;-43
2022/01/05 07:24:16;;;;;;;29.13;3.58;;;;;;;5.04;77.04;100279.13;5023062;28;20042;-42
2022/01/05 07:26:41;;;;;;;19.55;3.22;;;;;;;5.09;76.83;100286.66;5016159;28;20017;-43
2022/01/05 07:29:07;;;;;;;42.05;3.88;;;;;;;5.09;77.17;100282.13;5014087;28;20045;-44
2022/01/05 07:31:32;;;;;;;31.60;3.30;;;;;;;5.13;76.99;100282.66;5013904;28;20037;-44
2022/01/05 07:33:57;;;;;;;35.78;3.97;;;;;;;5.17;77.20;100286.69;5013234;28;20037;-42
2022/01/05 07:36:23;;;;;;;39.20;3.88;;;;;;;5.18;77.09;100301.66;5019973;28;20053;-42
2022/01/05 07:38:48;;;;;;;27.67;3.42;;;;;;;5.22;76.46;100308.38;5010509;28;20342;-43
2022/01/05 07:41:13;;;;;;;35.30;3.63;;;;;;;5.28;76.49;100287.22;5009466;28;20040;-42
2022/01/05 07:43:39;;;;;;;38.28;3.72;;;;;;;5.31;76.52;100301.22;5013637;28;20129;-43
2022/01/05 07:46:04;;;;;;;38.03;3.75;;;;;;;5.32;76.76;100298.41;4997523;28;20061;-42
2022/01/05 07:48:29;;;;;;;27.40;4.13;;;;;;;5.31;77.92;100302.06;4991768;28;20042;-42
2022/01/05 07:50:55;;;;;;;48.10;4.47;;;;;;;5.27;77.98;100308.72;5026385;28;20717;-43
2022/01/05 07:53:21;;;;;;;31.55;3.15;;;;;;;5.28;77.56;100307.72;5019493;28;20057;-44
2022/01/05 07:55:47;;;;;;;29.77;3.58;;;;;;;5.25;77.48;100324.06;5016878;28;20037;-43
2022/01/05 07:58:13;;;;;;;27.92;3.15;;;;;;;5.30;78.13;100326.25;5014427;28;20028;-43
2022/01/05 08:00:38;;;;;;;33.42;3.72;;;;;;;5.29;78.97;100314.72;5024523;28;20378;-44
2022/01/05 08:03:04;;;;;;;29.65;4.07;;;;;;;5.24;79.50;100328.56;5004471;28;20080;-43
2022/01/05 08:05:29;;;;;;;38.42;4.82;;;;;;;5.20;80.52;100310.34;5016208;28;20411;-41
2022/01/05 08:07:54;;;;;;;34.40;3.95;;;;;;;5.12;82.35;100326.31;5015553;28;20076;-41
2022/01/05 08:10:20;;;;;;;36.42;3.80;;;;;;;5.06;82.26;100327.81;5015354;28;20464;-42
2022/01/05 08:12:45;;;;;;;36.55;3.83;;;;;;;5.03;83.94;100328.97;5019463;28;20541;-42
2022/01/05 08:15:11;;;;;;;34.20;4.43;;;;;;;5.03;84.39;100328.97;5015514;28;20040;-42
2022/01/05 08:17:38;;;;;;;38.47;4.68;;;;;;;4.98;84.83;100338.44;5021708;28;20033;-42
2022/01/05 08:20:21;;;;;;;37.92;4.53;;;;;;;4.92;85.09;100350.53;5068283;28;20724;-42
2022/01/05 08:22:46;;;;;;;26.17;4.15;;;;;;;4.92;85.61;100344.38;5049391;28;20040;-42
2022/01/05 08:25:17;;;;;;;30.45;4.05;;;;;;;4.93;85.01;100352.22;5049530;28;20056;-42
2022/01/05 08:27:48;;;;;;;36.95;4.53;;;;;;;4.89;86.07;100358.03;5048054;28;20093;-41
2022/01/05 08:30:22;;;;;;;39.33;3.30;;;;;;;4.87;86.44;100354.69;5047621;28;20381;-42
2022/01/05 08:32:48;;;;;;;38.35;4.22;;;;;;;4.86;87.21;100361.84;5048420;28;20067;-42
2022/01/05 08:35:18;;;;;;;33.35;3.72;;;;;;;4.89;87.13;100358.03;5048258;28;20485;-42
2022/01/05 08:37:44;;;;;;;37.92;4.13;;;;;;;4.90;86.52;100365.88;5048938;28;20083;-43
2022/01/05 08:40:11;;;;;;;41.63;4.13;;;;;;;4.92;85.63;100361.22;5047453;28;20021;-42
2022/01/05 08:42:37;;;;;;;47.47;4.22;;;;;;;4.99;84.80;100358.75;5047831;28;20029;-42
2022/01/05 08:45:02;;;;;;;34.80;3.83;;;;;;;5.03;84.27;100368.97;5049318;28;20095;-42
2022/01/05 08:47:29;;;;;;;47.67;4.78;;;;;;;5.07;84.17;100370.31;5049253;28;20037;-43
2022/01/05 08:49:54;;;;;;;37.15;3.97;;;;;;;5.15;84.28;100384.69;5048933;28;20052;-42
2022/01/05 08:52:20;;;;;;;34.83;3.83;;;;;;;5.18;83.74;100387.88;5049543;28;20437;-43
2022/01/05 08:54:45;;;;;;;54.28;4.88;;;;;;;5.27;83.83;100375.44;5049022;28;20433;-42
2022/01/05 08:57:10;;;;;;;30.02;3.85;;;;;;;5.34;83.61;100387.13;5048029;28;20053;-42
2022/01/05 08:59:36;;;;;;;40.17;5.07;;;;;;;5.39;83.58;100386.66;5040072;28;20723;-44
2022/01/05 09:02:02;;;;;;;27.77;3.53;;;;;;;5.43;82.58;100396.03;5048394;28;20029;-42
2022/01/05 09:04:28;;;;;;;40.22;4.88;;;;;;;5.44;82.29;100403.84;5048164;28;20111;-42
2022/01/05 09:06:53;;;;;;;43.78;4.90;;;;;;;5.41;82.83;100390.84;5048495;28;20083;-42
2022/01/05 09:09:18;;;;;;;40.58;4.65;;;;;;;5.34;82.91;100392.47;5044047;28;20017;-42
2022/01/05 09:11:44;;;;;;;36.75;4.15;;;;;;;5.38;82.62;100399.16;5028422;28;20113;-41
2022/01/05 09:14:09;;;;;;;42.67;5.53;;;;;;;5.40;81.97;100407.03;5028196;28;20029;-41
2022/01/05 09:16:34;;;;;;;37.97;4.55;;;;;;;5.43;81.09;100394.19;5030633;28;20040;-42
2022/01/05 09:19:00;;;;;;;31.70;3.45;;;;;;;5.48;80.48;100415.91;5032580;28;20506;-41
2022/01/05 09:21:25;;;;;;;36.90;3.92;;;;;;;5.49;81.01;100427.41;5024852;28;20026;-42
2022/01/05 09:23:50;;;;;;;32.70;3.67;;;;;;;5.52;81.25;100428.91;5024961;28;20092;-41
2022/01/05 09:26:16;;;;;;;40.70;4.75;;;;;;;5.56;81.08;100433.78;5025167;28;20477;-42
2022/01/05 09:28:44;;;;;;;36.45;3.58;;;;;;;5.62;81.17;100434.97;5027150;28;20041;-42
2022/01/05 09:31:10;;;;;;;45.95;5.05;;;;;;;5.61;81.35;100434.16;5017298;28;20030;-42
2022/01/05 09:33:35;;;;;;;34.85;3.80;;;;;;;5.63;81.80;100431.31;5013179;28;20450;-41
2022/01/05 09:36:07;;;;;;;29.75;4.47;;;;;;;5.68;80.57;100437.00;5013624;28;20037;-42
2022/01/05 09:43:57;;;;;;;30.10;4.32;;;;;;;5.78;81.15;100448.41;5010775;28;20040;-42
2022/01/05 09:46:40;;;;;;;;;;;;;;;5.78;81.74;100451.06;4996759;28;20038;-42
2022/01/05 09:49:16;;;;;;;40.95;4.78;;;;;;;5.77;82.62;100461.94;5012822;28;19916;-42
2022/01/05 09:51:42;;;;;;;60.65;6.63;;;;;;;5.73;83.01;100464.88;5013279;28;20034;-42
2022/01/05 09:54:10;;;;;;;41.03;4.28;;;;;;;5.78;82.23;100453.72;5013620;28;20085;-42
2022/01/05 09:56:35;;;;;;;30.48;3.83;;;;;;;5.85;80.62;100475.31;5013020;28;20121;-42
2022/01/05 09:59:02;;;;;;;42.50;4.57;;;;;;;5.87;80.07;100474.16;5013749;28;20128;-42
2022/01/05 10:01:32;;;;;;;47.30;4.63;;;;;;;5.93;80.03;100483.34;5013647;28;20059;-43
2022/01/05 10:03:58;;;;;;;34.10;4.03;;;;;;;6.01;80.15;100478.06;5013910;28;20029;-43
2022/01/05 10:06:24;;;;;;;42.40;4.35;;;;;;;6.00;79.30;100487.06;5011460;28;20069;-42
2022/01/05 10:08:49;;;;;;;29.58;3.00;;;;;;;6.01;78.17;100488.75;5012982;28;20117;-42
2022/01/05 10:11:14;;;;;;;25.42;3.10;;;;;;;6.08;77.00;100489.78;5012638;28;20058;-41
2022/01/05 10:13:40;;;;;;;34.28;4.20;;;;;;;6.16;76.80;100483.63;5013845;28;20500;-42
2022/01/05 10:16:05;;;;;;;39.10;3.92;;;;;;;6.17;77.94;100498.66;5013869;28;20080;-43
2022/01/05 10:18:42;;;;;;;34.80;3.35;;;;;;;6.19;78.87;100510.03;5013224;28;20119;-42
2022/01/05 10:21:07;;;;;;;34.80;3.83;;;;;;;6.14;79.09;100512.34;5013796;28;20540;-42
2022/01/05 10:23:45;;;;;;;37.97;3.53;;;;;;;6.18;78.64;100513.69;5006240;28;20090;-43
2022/01/05 10:26:30;;;;;;;36.17;3.10;;;;;;;6.10;79.62;100517.16;5013206;28;20029;-43
2022/01/05 10:29:00;;;;;;;39.03;3.75;;;;;;;6.01;80.92;100530.66;5012878;28;20572;-42
2022/01/05 10:31:39;;;;;;;27.15;2.97;;;;;;;5.97;81.63;100511.44;5013027;28;20026;-42
2022/01/05 10:34:24;;;;;;;36.28;4.15;;;;;;;5.90;83.55;100513.06;5013420;28;20037;-43
2022/01/05 10:36:57;;;;;;;30.23;2.67;;;;;;;5.87;83.32;100532.91;5012777;28;20445;-42
2022/01/05 10:39:35;;;;;;;33.15;3.80;;;;;;;5.84;82.52;100519.84;5013779;28;20054;-42
2022/01/05 10:42:11;;;;;;;27.48;3.45;;;;;;;5.84;81.55;100525.19;4998255;28;20048;-42
2022/01/05 10:44:37;;;;;;;32.88;3.17;;;;;;;5.90;82.20;100524.56;5008882;28;20034;-43
2022/01/05 10:47:05;;;;;;;34.10;3.42;;;;;;;5.94;82.12;100539.31;5010370;28;20417;-42
2022/01/05 10:49:35;;;;;;;;;;;;;;;6.02;81.42;100540.34;5011005;28;20025;-41
2022/01/05 10:52:19;;;;;;;34.20;4.30;;;;;;;6.01;82.66;100554.72;5010546;28;20338;-43
2022/01/05 10:54:44;;;;;;;47.33;4.85;;;;;;;5.96;83.48;100541.81;5009559;28;20026;-41
2022/01/05 10:57:12;;;;;;;32.70;4.85;;;;;;;6.01;83.14;100549.38;5011055;28;20434;-41
2022/01/05 10:59:42;;;;;;;37.72;4.05;;;;;;;6.03;83.23;100564.25;5009414;28;20025;-42
2022/01/05 11:02:23;;;;;;;40.65;3.85;;;;;;;5.95;83.20;100556.19;5010560;28;20038;-42
2022/01/05 11:05:06;;;;;;;41.25;4.47;;;;;;;5.96;84.02;100571.22;5010271;28;20105;-41
2022/01/05 11:07:34;;;;;;;45.53;4.70;;;;;;;5.94;85.06;100568.69;5010077;28;20041;-43
2022/01/05 11:10:02;;;;;;;54.05;4.78;;;;;;;5.98;84.76;100560.34;5026510;28;20065;-42
2022/01/05 11:12:38;;;;;;;;;;;;;;;5.99;84.65;100564.72;5016110;28;20022;-43
2022/01/05 11:15:23;;;;;;;42.92;4.53;;;;;;;6.08;82.13;100561.94;4990693;28;20296;-41
2022/01/05 11:18:14;;;;;;;45.22;4.95;;;;;;;6.15;83.30;100567.47;5004294;28;20477;-41
2022/01/05 11:21:06;;;;;;;59.88;5.90;;;;;;;6.29;84.38;100574.03;5009404;28;20036;-42
2022/01/05 11:23:32;;;;;;;50.10;4.20;;;;;;;6.59;82.91;100569.97;5009065;28;20120;-43
2022/01/05 11:26:00;;;;;;;37.67;4.60;;;;;;;6.79;81.66;100581.22;5011880;28;20109;-41
2022/01/05 11:28:27;;;;;;;40.58;4.30;;;;;;;6.80;79.92;100586.41;5011492;28;20037;-42
2022/01/05 11:30:54;;;;;;;46.28;4.13;;;;;;;6.64;82.07;100589.03;5012902;28;20022;-42